sensor_id;sensor_type;location;lat;lon;timestamp;P1;durP1;ratioP1;P2;durP2;ratioP2
64498;SDS011;51087;55.718;21.122;2022-07-05T00:02:05;2.75;;;1.10;;
64498;SDS011;51087;55.718;21.122;2022-07-05T00:04:31;1.00;;;0.90;;
64498;SDS011;51087;55.718;21.122;2022-07-05T00:06:56;1.27;;;1.15;;
64498;SDS011;51087;55.718;21.122;2022-07-05T00:09:41;2.50;;;1.00;;
64498;SDS011;51087;55.718;21.122;2022-07-05T00:12:06;1.60;;;1.00;;
64498;SDS011;51087;55.718;21.122;2022-07-05T00:14:32;1.83;;;0.90;;
64498;SDS011;51087;55.718;21.122;2022-07-05T00:16:57;1.73;;;1.00;;
64498;SDS011;51087;55.718;21.122;2022-07-05T00:19:23;1.23;;;0.85;;
64498;SDS011;51087;55.718;21.122;2022-07-05T00:21:48;2.08;;;0.95;;
64498;SDS011;51087;55.718;21.122;2022-07-05T00:24:14;1.83;;;1.05;;
64498;SDS011;51087;55.718;21.122;2022-07-05T00:26:39;1.25;;;0.80;;
64498;SDS011;51087;55.718;21.122;2022-07-05T00:29:04;1.08;;;0.82;;
64498;SDS011;51087;55.718;21.122;2022-07-05T00:31:30;0.98;;;0.80;;
64498;SDS011;51087;55.718;21.122;2022-07-05T00:33:55;0.90;;;0.70;;
64498;SDS011;51087;55.718;21.122;2022-07-05T00:36:21;0.77;;;0.73;;
64498;SDS011;51087;55.718;21.122;2022-07-05T00:38:46;1.25;;;0.90;;
64498;SDS011;51087;55.718;21.122;2022-07-05T00:41:11;1.67;;;0.80;;
64498;SDS011;51087;55.718;21.122;2022-07-05T00:43:37;0.75;;;0.70;;
64498;SDS011;51087;55.718;21.122;2022-07-05T00:46:02;1.30;;;0.75;;
64498;SDS011;51087;55.718;21.122;2022-07-05T00:48:28;1.00;;;0.80;;
64498;SDS011;51087;55.718;21.122;2022-07-05T00:50:53;1.13;;;0.80;;
64498;SDS011;51087;55.718;21.122;2022-07-05T00:53:19;1.45;;;0.80;;
64498;SDS011;51087;55.718;21.122;2022-07-05T00:55:44;1.23;;;0.80;;
64498;SDS011;51087;55.718;21.122;2022-07-05T00:58:10;1.30;;;0.70;;
64498;SDS011;51087;55.718;21.122;2022-07-05T01:00:36;1.30;;;0.90;;
64498;SDS011;51087;55.718;21.122;2022-07-05T01:03:02;0.70;;;0.70;;
64498;SDS011;51087;55.718;21.122;2022-07-05T01:05:28;1.55;;;0.80;;
64498;SDS011;51087;55.718;21.122;2022-07-05T01:07:55;0.88;;;0.70;;
64498;SDS011;51087;55.718;21.122;2022-07-05T01:10:21;0.85;;;0.70;;
64498;SDS011;51087;55.718;21.122;2022-07-05T01:12:47;3.05;;;0.80;;
64498;SDS011;51087;55.718;21.122;2022-07-05T01:15:12;1.83;;;0.80;;
64498;SDS011;51087;55.718;21.122;2022-07-05T01:17:38;1.67;;;0.90;;
64498;SDS011;51087;55.718;21.122;2022-07-05T01:20:05;1.30;;;0.65;;
64498;SDS011;51087;55.718;21.122;2022-07-05T01:23:17;1.05;;;0.68;;
64498;SDS011;51087;55.718;21.122;2022-07-05T01:25:25;1.27;;;0.70;;
64498;SDS011;51087;55.718;21.122;2022-07-05T01:27:51;0.95;;;0.60;;
64498;SDS011;51087;55.718;21.122;2022-07-05T01:30:17;0.90;;;0.70;;
64498;SDS011;51087;55.718;21.122;2022-07-05T01:32:43;1.60;;;0.70;;
64498;SDS011;51087;55.718;21.122;2022-07-05T01:35:09;2.10;;;0.90;;
64498;SDS011;51087;55.718;21.122;2022-07-05T01:37:35;2.47;;;0.70;;
64498;SDS011;51087;55.718;21.122;2022-07-05T01:40:02;2.45;;;0.73;;
64498;SDS011;51087;55.718;21.122;2022-07-05T01:42:28;1.20;;;0.70;;
64498;SDS011;51087;55.718;21.122;2022-07-05T01:44:53;0.60;;;0.60;;
64498;SDS011;51087;55.718;21.122;2022-07-05T01:47:19;1.08;;;0.65;;
64498;SDS011;51087;55.718;21.122;2022-07-05T01:49:45;2.60;;;0.60;;
64498;SDS011;51087;55.718;21.122;2022-07-05T01:52:13;1.27;;;0.73;;
64498;SDS011;51087;55.718;21.122;2022-07-05T01:54:41;1.42;;;0.80;;
64498;SDS011;51087;55.718;21.122;2022-07-05T01:57:08;0.60;;;0.60;;
64498;SDS011;51087;55.718;21.122;2022-07-05T01:59:34;0.77;;;0.60;;
64498;SDS011;51087;55.718;21.122;2022-07-05T02:02:01;1.40;;;0.80;;
64498;SDS011;51087;55.718;21.122;2022-07-05T02:04:27;1.08;;;0.70;;
64498;SDS011;51087;55.718;21.122;2022-07-05T02:06:53;1.08;;;0.50;;
64498;SDS011;51087;55.718;21.122;2022-07-05T02:09:19;1.00;;;0.70;;
64498;SDS011;51087;55.718;21.122;2022-07-05T02:11:44;0.60;;;0.60;;
64498;SDS011;51087;55.718;21.122;2022-07-05T02:14:09;1.40;;;0.80;;
64498;SDS011;51087;55.718;21.122;2022-07-05T02:16:36;1.05;;;0.80;;
64498;SDS011;51087;55.718;21.122;2022-07-05T02:19:02;1.05;;;0.70;;
64498;SDS011;51087;55.718;21.122;2022-07-05T02:21:27;1.10;;;0.60;;
64498;SDS011;51087;55.718;21.122;2022-07-05T02:23:53;1.63;;;0.75;;
64498;SDS011;51087;55.718;21.122;2022-07-05T02:26:19;0.70;;;0.60;;
64498;SDS011;51087;55.718;21.122;2022-07-05T02:28:45;0.60;;;0.60;;
64498;SDS011;51087;55.718;21.122;2022-07-05T02:31:10;0.88;;;0.70;;
64498;SDS011;51087;55.718;21.122;2022-07-05T02:33:36;1.25;;;0.60;;
64498;SDS011;51087;55.718;21.122;2022-07-05T02:36:11;1.35;;;0.70;;
64498;SDS011;51087;55.718;21.122;2022-07-05T02:38:38;0.88;;;0.50;;
64498;SDS011;51087;55.718;21.122;2022-07-05T02:41:08;1.17;;;0.70;;
64498;SDS011;51087;55.718;21.122;2022-07-05T02:43:34;2.05;;;0.60;;
64498;SDS011;51087;55.718;21.122;2022-07-05T02:46:01;1.38;;;0.70;;
64498;SDS011;51087;55.718;21.122;2022-07-05T02:48:27;0.70;;;0.60;;
64498;SDS011;51087;55.718;21.122;2022-07-05T02:50:53;1.02;;;0.75;;
64498;SDS011;51087;55.718;21.122;2022-07-05T02:53:18;0.80;;;0.50;;
64498;SDS011;51087;55.718;21.122;2022-07-05T02:55:44;0.88;;;0.60;;
64498;SDS011;51087;55.718;21.122;2022-07-05T02:58:09;0.75;;;0.50;;
64498;SDS011;51087;55.718;21.122;2022-07-05T03:00:35;0.93;;;0.60;;
64498;SDS011;51087;55.718;21.122;2022-07-05T03:03:00;1.25;;;0.70;;
64498;SDS011;51087;55.718;21.122;2022-07-05T03:05:27;1.88;;;0.82;;
64498;SDS011;51087;55.718;21.122;2022-07-05T03:07:53;1.00;;;0.60;;
64498;SDS011;51087;55.718;21.122;2022-07-05T03:10:18;1.52;;;0.60;;
64498;SDS011;51087;55.718;21.122;2022-07-05T03:12:43;1.80;;;0.70;;
64498;SDS011;51087;55.718;21.122;2022-07-05T03:15:09;1.10;;;0.70;;
64498;SDS011;51087;55.718;21.122;2022-07-05T03:17:35;1.63;;;0.70;;
64498;SDS011;51087;55.718;21.122;2022-07-05T03:20:00;0.95;;;0.60;;
64498;SDS011;51087;55.718;21.122;2022-07-05T03:22:25;2.10;;;0.80;;
64498;SDS011;51087;55.718;21.122;2022-07-05T03:24:51;0.70;;;0.50;;
64498;SDS011;51087;55.718;21.122;2022-07-05T03:27:16;0.90;;;0.65;;
64498;SDS011;51087;55.718;21.122;2022-07-05T03:29:42;1.08;;;0.60;;
64498;SDS011;51087;55.718;21.122;2022-07-05T03:32:07;0.55;;;0.55;;
64498;SDS011;51087;55.718;21.122;2022-07-05T03:34:33;1.30;;;0.70;;
64498;SDS011;51087;55.718;21.122;2022-07-05T03:36:58;1.15;;;0.57;;
64498;SDS011;51087;55.718;21.122;2022-07-05T03:39:23;0.70;;;0.60;;
64498;SDS011;51087;55.718;21.122;2022-07-05T03:41:49;1.50;;;0.70;;
64498;SDS011;51087;55.718;21.122;2022-07-05T03:44:14;0.88;;;0.70;;
64498;SDS011;51087;55.718;21.122;2022-07-05T03:46:39;1.38;;;0.70;;
64498;SDS011;51087;55.718;21.122;2022-07-05T03:49:05;0.98;;;0.70;;
64498;SDS011;51087;55.718;21.122;2022-07-05T03:51:30;1.38;;;0.75;;
64498;SDS011;51087;55.718;21.122;2022-07-05T03:53:56;1.67;;;0.70;;
64498;SDS011;51087;55.718;21.122;2022-07-05T03:56:21;1.10;;;0.60;;
64498;SDS011;51087;55.718;21.122;2022-07-05T03:58:51;3.42;;;0.90;;
64498;SDS011;51087;55.718;21.122;2022-07-05T04:01:16;1.85;;;0.75;;
64498;SDS011;51087;55.718;21.122;2022-07-05T04:03:42;1.92;;;0.90;;
64498;SDS011;51087;55.718;21.122;2022-07-05T04:06:08;1.73;;;0.90;;
64498;SDS011;51087;55.718;21.122;2022-07-05T04:08:35;1.15;;;0.82;;
64498;SDS011;51087;55.718;21.122;2022-07-05T04:11:00;1.70;;;1.00;;
64498;SDS011;51087;55.718;21.122;2022-07-05T04:13:26;1.52;;;1.00;;
64498;SDS011;51087;55.718;21.122;2022-07-05T04:15:51;1.38;;;1.00;;
64498;SDS011;51087;55.718;21.122;2022-07-05T04:18:18;1.95;;;1.10;;
64498;SDS011;51087;55.718;21.122;2022-07-05T04:20:44;1.30;;;0.90;;
64498;SDS011;51087;55.718;21.122;2022-07-05T04:23:09;1.15;;;0.90;;
64498;SDS011;51087;55.718;21.122;2022-07-05T04:25:35;1.38;;;0.93;;
64498;SDS011;51087;55.718;21.122;2022-07-05T04:28:00;1.48;;;0.98;;
64498;SDS011;51087;55.718;21.122;2022-07-05T04:30:26;1.20;;;0.98;;
64498;SDS011;51087;55.718;21.122;2022-07-05T04:32:51;1.70;;;1.10;;
64498;SDS011;51087;55.718;21.122;2022-07-05T04:35:17;1.23;;;0.90;;
64498;SDS011;51087;55.718;21.122;2022-07-05T04:37:43;1.30;;;1.00;;
64498;SDS011;51087;55.718;21.122;2022-07-05T04:40:09;1.08;;;0.95;;
64498;SDS011;51087;55.718;21.122;2022-07-05T04:42:36;1.33;;;1.00;;
64498;SDS011;51087;55.718;21.122;2022-07-05T04:45:02;1.90;;;1.20;;
64498;SDS011;51087;55.718;21.122;2022-07-05T04:47:28;1.52;;;1.00;;
64498;SDS011;51087;55.718;21.122;2022-07-05T04:49:54;1.27;;;0.90;;
64498;SDS011;51087;55.718;21.122;2022-07-05T04:52:21;1.58;;;1.00;;
64498;SDS011;51087;55.718;21.122;2022-07-05T04:54:47;1.63;;;0.93;;
64498;SDS011;51087;55.718;21.122;2022-07-05T04:57:13;1.23;;;1.00;;
64498;SDS011;51087;55.718;21.122;2022-07-05T04:59:38;2.22;;;1.15;;
64498;SDS011;51087;55.718;21.122;2022-07-05T05:02:04;1.75;;;1.20;;
64498;SDS011;51087;55.718;21.122;2022-07-05T05:04:29;1.40;;;0.90;;
64498;SDS011;51087;55.718;21.122;2022-07-05T05:06:55;1.88;;;1.10;;
64498;SDS011;51087;55.718;21.122;2022-07-05T05:09:20;1.20;;;0.88;;
64498;SDS011;51087;55.718;21.122;2022-07-05T05:11:46;1.35;;;0.98;;
64498;SDS011;51087;55.718;21.122;2022-07-05T05:14:11;1.73;;;1.00;;
64498;SDS011;51087;55.718;21.122;2022-07-05T05:16:37;1.55;;;0.95;;
64498;SDS011;51087;55.718;21.122;2022-07-05T05:19:02;1.42;;;0.95;;
64498;SDS011;51087;55.718;21.122;2022-07-05T05:21:28;2.00;;;1.05;;
64498;SDS011;51087;55.718;21.122;2022-07-05T05:23:53;2.17;;;1.10;;
64498;SDS011;51087;55.718;21.122;2022-07-05T05:26:19;3.13;;;0.95;;
64498;SDS011;51087;55.718;21.122;2022-07-05T05:28:44;1.45;;;1.00;;
64498;SDS011;51087;55.718;21.122;2022-07-05T05:31:10;3.45;;;0.90;;
64498;SDS011;51087;55.718;21.122;2022-07-05T05:33:35;2.95;;;1.05;;
64498;SDS011;51087;55.718;21.122;2022-07-05T05:36:01;1.58;;;0.88;;
64498;SDS011;51087;55.718;21.122;2022-07-05T05:38:27;1.90;;;0.85;;
64498;SDS011;51087;55.718;21.122;2022-07-05T05:40:53;0.82;;;0.80;;
64498;SDS011;51087;55.718;21.122;2022-07-05T05:43:18;1.58;;;0.80;;
64498;SDS011;51087;55.718;21.122;2022-07-05T05:45:44;1.48;;;0.70;;
64498;SDS011;51087;55.718;21.122;2022-07-05T05:48:10;2.42;;;1.00;;
64498;SDS011;51087;55.718;21.122;2022-07-05T05:50:36;1.65;;;0.88;;
64498;SDS011;51087;55.718;21.122;2022-07-05T05:53:04;1.48;;;0.70;;
64498;SDS011;51087;55.718;21.122;2022-07-05T05:55:30;3.13;;;1.08;;
64498;SDS011;51087;55.718;21.122;2022-07-05T05:57:56;3.08;;;0.90;;
64498;SDS011;51087;55.718;21.122;2022-07-05T06:00:27;15.15;;;1.38;;
64498;SDS011;51087;55.718;21.122;2022-07-05T06:02:52;6.10;;;1.20;;
64498;SDS011;51087;55.718;21.122;2022-07-05T06:05:18;4.55;;;1.00;;
64498;SDS011;51087;55.718;21.122;2022-07-05T06:07:50;5.10;;;0.80;;
64498;SDS011;51087;55.718;21.122;2022-07-05T06:10:21;7.57;;;1.10;;
64498;SDS011;51087;55.718;21.122;2022-07-05T06:12:49;6.32;;;1.20;;
64498;SDS011;51087;55.718;21.122;2022-07-05T06:15:15;4.25;;;1.08;;
64498;SDS011;51087;55.718;21.122;2022-07-05T06:17:41;4.93;;;1.05;;
64498;SDS011;51087;55.718;21.122;2022-07-05T06:20:11;4.70;;;1.00;;
64498;SDS011;51087;55.718;21.122;2022-07-05T06:22:41;4.25;;;0.90;;
64498;SDS011;51087;55.718;21.122;2022-07-05T06:25:06;4.05;;;0.93;;
64498;SDS011;51087;55.718;21.122;2022-07-05T06:27:37;3.50;;;0.90;;
64498;SDS011;51087;55.718;21.122;2022-07-05T06:30:04;3.75;;;0.90;;
64498;SDS011;51087;55.718;21.122;2022-07-05T06:32:30;6.20;;;1.30;;
64498;SDS011;51087;55.718;21.122;2022-07-05T06:34:55;4.97;;;0.93;;
64498;SDS011;51087;55.718;21.122;2022-07-05T06:37:21;3.13;;;0.90;;
64498;SDS011;51087;55.718;21.122;2022-07-05T06:39:46;2.47;;;1.15;;
64498;SDS011;51087;55.718;21.122;2022-07-05T06:42:12;4.10;;;1.15;;
64498;SDS011;51087;55.718;21.122;2022-07-05T06:44:38;5.55;;;0.90;;
64498;SDS011;51087;55.718;21.122;2022-07-05T06:47:03;3.25;;;0.90;;
64498;SDS011;51087;55.718;21.122;2022-07-05T06:49:29;4.43;;;1.15;;
64498;SDS011;51087;55.718;21.122;2022-07-05T06:51:54;2.60;;;0.95;;
64498;SDS011;51087;55.718;21.122;2022-07-05T06:54:20;1.95;;;0.90;;
64498;SDS011;51087;55.718;21.122;2022-07-05T06:56:45;2.92;;;0.93;;
64498;SDS011;51087;55.718;21.122;2022-07-05T06:59:10;3.70;;;0.98;;
64498;SDS011;51087;55.718;21.122;2022-07-05T07:01:36;4.45;;;0.90;;
64498;SDS011;51087;55.718;21.122;2022-07-05T07:04:01;5.57;;;1.08;;
64498;SDS011;51087;55.718;21.122;2022-07-05T07:06:27;3.28;;;0.85;;
64498;SDS011;51087;55.718;21.122;2022-07-05T07:08:52;1.63;;;0.80;;
64498;SDS011;51087;55.718;21.122;2022-07-05T07:11:36;2.97;;;0.93;;
64498;SDS011;51087;55.718;21.122;2022-07-05T07:14:02;4.65;;;1.00;;
64498;SDS011;51087;55.718;21.122;2022-07-05T07:16:27;4.72;;;0.95;;
64498;SDS011;51087;55.718;21.122;2022-07-05T07:18:53;4.25;;;1.50;;
64498;SDS011;51087;55.718;21.122;2022-07-05T07:21:18;3.53;;;1.10;;
64498;SDS011;51087;55.718;21.122;2022-07-05T07:23:44;5.72;;;1.25;;
64498;SDS011;51087;55.718;21.122;2022-07-05T07:26:09;5.25;;;1.00;;
64498;SDS011;51087;55.718;21.122;2022-07-05T07:28:34;3.70;;;1.30;;
64498;SDS011;51087;55.718;21.122;2022-07-05T07:31:00;4.97;;;1.10;;
64498;SDS011;51087;55.718;21.122;2022-07-05T07:33:25;4.75;;;1.00;;
64498;SDS011;51087;55.718;21.122;2022-07-05T07:35:51;6.78;;;0.90;;
64498;SDS011;51087;55.718;21.122;2022-07-05T07:38:16;3.65;;;1.02;;
64498;SDS011;51087;55.718;21.122;2022-07-05T07:40:42;5.88;;;1.15;;
64498;SDS011;51087;55.718;21.122;2022-07-05T07:43:07;3.72;;;0.90;;
64498;SDS011;51087;55.718;21.122;2022-07-05T07:45:32;6.07;;;1.20;;
64498;SDS011;51087;55.718;21.122;2022-07-05T07:47:58;3.83;;;1.02;;
64498;SDS011;51087;55.718;21.122;2022-07-05T07:50:23;4.30;;;1.00;;
64498;SDS011;51087;55.718;21.122;2022-07-05T07:52:48;5.50;;;0.95;;
64498;SDS011;51087;55.718;21.122;2022-07-05T07:55:14;2.08;;;0.80;;
64498;SDS011;51087;55.718;21.122;2022-07-05T07:57:40;6.18;;;1.30;;
64498;SDS011;51087;55.718;21.122;2022-07-05T08:00:06;5.22;;;0.90;;
64498;SDS011;51087;55.718;21.122;2022-07-05T08:02:32;2.20;;;1.00;;
64498;SDS011;51087;55.718;21.122;2022-07-05T08:04:57;6.32;;;0.93;;
64498;SDS011;51087;55.718;21.122;2022-07-05T08:07:23;3.22;;;0.93;;
64498;SDS011;51087;55.718;21.122;2022-07-05T08:09:49;4.18;;;1.10;;
64498;SDS011;51087;55.718;21.122;2022-07-05T08:12:15;3.88;;;1.00;;
64498;SDS011;51087;55.718;21.122;2022-07-05T08:14:40;5.22;;;1.10;;
64498;SDS011;51087;55.718;21.122;2022-07-05T08:17:06;2.55;;;1.00;;
64498;SDS011;51087;55.718;21.122;2022-07-05T08:19:33;9.07;;;1.02;;
64498;SDS011;51087;55.718;21.122;2022-07-05T08:24:42;11.05;;;1.30;;
64498;SDS011;51087;55.718;21.122;2022-07-05T08:27:07;4.57;;;1.15;;
64498;SDS011;51087;55.718;21.122;2022-07-05T08:29:33;3.22;;;1.02;;
64498;SDS011;51087;55.718;21.122;2022-07-05T08:31:59;11.15;;;1.20;;
64498;SDS011;51087;55.718;21.122;2022-07-05T08:34:24;12.35;;;1.50;;
64498;SDS011;51087;55.718;21.122;2022-07-05T08:36:50;9.25;;;1.75;;
64498;SDS011;51087;55.718;21.122;2022-07-05T08:39:15;10.07;;;1.35;;
64498;SDS011;51087;55.718;21.122;2022-07-05T08:41:42;2.55;;;0.98;;
64498;SDS011;51087;55.718;21.122;2022-07-05T08:44:08;7.18;;;1.20;;
64498;SDS011;51087;55.718;21.122;2022-07-05T08:46:37;8.90;;;1.27;;
64498;SDS011;51087;55.718;21.122;2022-07-05T08:49:04;5.15;;;1.20;;
64498;SDS011;51087;55.718;21.122;2022-07-05T08:51:32;6.40;;;1.10;;
64498;SDS011;51087;55.718;21.122;2022-07-05T08:54:02;6.85;;;1.50;;
64498;SDS011;51087;55.718;21.122;2022-07-05T08:56:28;5.30;;;1.00;;
64498;SDS011;51087;55.718;21.122;2022-07-05T08:58:55;2.63;;;0.90;;
64498;SDS011;51087;55.718;21.122;2022-07-05T09:01:20;3.75;;;1.10;;
64498;SDS011;51087;55.718;21.122;2022-07-05T09:03:48;4.43;;;1.50;;
64498;SDS011;51087;55.718;21.122;2022-07-05T09:06:18;5.80;;;1.10;;
64498;SDS011;51087;55.718;21.122;2022-07-05T09:08:45;3.03;;;1.10;;
64498;SDS011;51087;55.718;21.122;2022-07-05T09:11:13;2.55;;;0.90;;
64498;SDS011;51087;55.718;21.122;2022-07-05T09:13:41;3.80;;;0.90;;
64498;SDS011;51087;55.718;21.122;2022-07-05T09:16:08;2.42;;;0.90;;
64498;SDS011;51087;55.718;21.122;2022-07-05T09:23:43;3.78;;;0.88;;
64498;SDS011;51087;55.718;21.122;2022-07-05T09:26:09;2.97;;;1.00;;
64498;SDS011;51087;55.718;21.122;2022-07-05T09:28:35;2.65;;;1.08;;
64498;SDS011;51087;55.718;21.122;2022-07-05T09:31:01;4.57;;;1.00;;
64498;SDS011;51087;55.718;21.122;2022-07-05T09:33:26;2.72;;;0.90;;
64498;SDS011;51087;55.718;21.122;2022-07-05T09:35:53;6.47;;;1.10;;
64498;SDS011;51087;55.718;21.122;2022-07-05T09:38:26;13.38;;;1.33;;
64498;SDS011;51087;55.718;21.122;2022-07-05T09:40:53;7.70;;;1.27;;
64498;SDS011;51087;55.718;21.122;2022-07-05T09:43:21;11.98;;;1.20;;
64498;SDS011;51087;55.718;21.122;2022-07-05T09:48:16;2.60;;;0.88;;
64498;SDS011;51087;55.718;21.122;2022-07-05T09:50:42;3.10;;;1.00;;
64498;SDS011;51087;55.718;21.122;2022-07-05T09:53:08;8.23;;;1.30;;
64498;SDS011;51087;55.718;21.122;2022-07-05T09:55:36;3.53;;;0.90;;
64498;SDS011;51087;55.718;21.122;2022-07-05T09:58:01;6.57;;;1.20;;
64498;SDS011;51087;55.718;21.122;2022-07-05T10:00:27;2.72;;;1.00;;
64498;SDS011;51087;55.718;21.122;2022-07-05T10:02:53;3.78;;;0.90;;
64498;SDS011;51087;55.718;21.122;2022-07-05T10:05:26;3.10;;;1.10;;
64498;SDS011;51087;55.718;21.122;2022-07-05T10:07:57;5.00;;;0.93;;
64498;SDS011;51087;55.718;21.122;2022-07-05T10:10:25;3.05;;;0.98;;
64498;SDS011;51087;55.718;21.122;2022-07-05T10:12:53;2.15;;;0.90;;
64498;SDS011;51087;55.718;21.122;2022-07-05T10:15:25;4.88;;;1.00;;
64498;SDS011;51087;55.718;21.122;2022-07-05T10:20:40;5.57;;;0.70;;
64498;SDS011;51087;55.718;21.122;2022-07-05T10:25:38;1.63;;;0.80;;
64498;SDS011;51087;55.718;21.122;2022-07-05T10:28:05;2.13;;;1.00;;
64498;SDS011;51087;55.718;21.122;2022-07-05T10:30:32;2.42;;;0.80;;
64498;SDS011;51087;55.718;21.122;2022-07-05T10:32:59;5.05;;;1.05;;
64498;SDS011;51087;55.718;21.122;2022-07-05T10:35:26;2.58;;;0.90;;
64498;SDS011;51087;55.718;21.122;2022-07-05T10:37:52;7.25;;;1.10;;
64498;SDS011;51087;55.718;21.122;2022-07-05T10:40:18;3.35;;;0.95;;
64498;SDS011;51087;55.718;21.122;2022-07-05T10:42:52;2.58;;;0.93;;
64498;SDS011;51087;55.718;21.122;2022-07-05T10:48:12;6.32;;;1.15;;
64498;SDS011;51087;55.718;21.122;2022-07-05T10:50:45;9.07;;;1.10;;
64498;SDS011;51087;55.718;21.122;2022-07-05T10:55:47;5.20;;;0.88;;
64498;SDS011;51087;55.718;21.122;2022-07-05T11:00:41;7.25;;;1.25;;
64498;SDS011;51087;55.718;21.122;2022-07-05T11:03:06;3.78;;;1.00;;
64498;SDS011;51087;55.718;21.122;2022-07-05T11:05:52;5.43;;;1.00;;
64498;SDS011;51087;55.718;21.122;2022-07-05T11:08:18;2.97;;;0.90;;
64498;SDS011;51087;55.718;21.122;2022-07-05T11:16:21;7.05;;;1.30;;
64498;SDS011;51087;55.718;21.122;2022-07-05T11:18:49;6.55;;;1.00;;
64498;SDS011;51087;55.718;21.122;2022-07-05T11:21:22;2.45;;;0.90;;
64498;SDS011;51087;55.718;21.122;2022-07-05T11:23:48;9.80;;;0.90;;
64498;SDS011;51087;55.718;21.122;2022-07-05T11:26:17;6.63;;;1.00;;
64498;SDS011;51087;55.718;21.122;2022-07-05T11:28:47;3.97;;;1.02;;
64498;SDS011;51087;55.718;21.122;2022-07-05T11:31:39;5.03;;;0.90;;
64498;SDS011;51087;55.718;21.122;2022-07-05T11:34:12;3.65;;;1.10;;
64498;SDS011;51087;55.718;21.122;2022-07-05T11:36:38;3.57;;;0.87;;
64498;SDS011;51087;55.718;21.122;2022-07-05T11:41:32;4.57;;;0.90;;
64498;SDS011;51087;55.718;21.122;2022-07-05T11:43:57;3.58;;;0.98;;
64498;SDS011;51087;55.718;21.122;2022-07-05T11:46:23;3.90;;;1.10;;
64498;SDS011;51087;55.718;21.122;2022-07-05T11:48:49;8.30;;;1.08;;
64498;SDS011;51087;55.718;21.122;2022-07-05T11:51:15;4.22;;;0.85;;
64498;SDS011;51087;55.718;21.122;2022-07-05T11:53:41;3.65;;;0.90;;
64498;SDS011;51087;55.718;21.122;2022-07-05T11:56:07;8.00;;;1.00;;
64498;SDS011;51087;55.718;21.122;2022-07-05T11:58:33;3.50;;;1.10;;
64498;SDS011;51087;55.718;21.122;2022-07-05T12:00:59;5.03;;;1.02;;
64498;SDS011;51087;55.718;21.122;2022-07-05T12:03:25;4.38;;;0.88;;
64498;SDS011;51087;55.718;21.122;2022-07-05T12:05:50;4.43;;;1.20;;
64498;SDS011;51087;55.718;21.122;2022-07-05T12:08:23;4.05;;;1.10;;
64498;SDS011;51087;55.718;21.122;2022-07-05T12:10:50;5.80;;;1.00;;
64498;SDS011;51087;55.718;21.122;2022-07-05T12:13:47;2.65;;;0.90;;
64498;SDS011;51087;55.718;21.122;2022-07-05T12:16:14;6.35;;;0.98;;
64498;SDS011;51087;55.718;21.122;2022-07-05T12:18:54;3.05;;;0.93;;
64498;SDS011;51087;55.718;21.122;2022-07-05T12:21:20;2.72;;;0.90;;
64498;SDS011;51087;55.718;21.122;2022-07-05T12:23:47;2.92;;;1.00;;
64498;SDS011;51087;55.718;21.122;2022-07-05T12:26:15;3.50;;;0.93;;
64498;SDS011;51087;55.718;21.122;2022-07-05T12:28:42;8.88;;;1.05;;
64498;SDS011;51087;55.718;21.122;2022-07-05T12:31:18;4.47;;;0.90;;
64498;SDS011;51087;55.718;21.122;2022-07-05T12:33:48;2.85;;;1.00;;
64498;SDS011;51087;55.718;21.122;2022-07-05T12:36:15;4.32;;;1.00;;
64498;SDS011;51087;55.718;21.122;2022-07-05T12:38:45;4.20;;;0.90;;
64498;SDS011;51087;55.718;21.122;2022-07-05T12:41:10;12.18;;;1.10;;
64498;SDS011;51087;55.718;21.122;2022-07-05T12:43:52;3.60;;;1.00;;
64498;SDS011;51087;55.718;21.122;2022-07-05T12:46:19;7.73;;;0.90;;
64498;SDS011;51087;55.718;21.122;2022-07-05T12:48:51;2.92;;;1.00;;
64498;SDS011;51087;55.718;21.122;2022-07-05T12:51:30;4.10;;;1.13;;
64498;SDS011;51087;55.718;21.122;2022-07-05T12:54:00;2.72;;;0.85;;
64498;SDS011;51087;55.718;21.122;2022-07-05T12:57:04;3.05;;;0.80;;
64498;SDS011;51087;55.718;21.122;2022-07-05T13:02:33;5.88;;;1.10;;
64498;SDS011;51087;55.718;21.122;2022-07-05T13:05:18;4.07;;;0.93;;
64498;SDS011;51087;55.718;21.122;2022-07-05T13:07:46;3.13;;;1.30;;
64498;SDS011;51087;55.718;21.122;2022-07-05T13:10:18;5.07;;;1.08;;
64498;SDS011;51087;55.718;21.122;2022-07-05T13:12:45;2.15;;;0.90;;
64498;SDS011;51087;55.718;21.122;2022-07-05T13:15:11;3.17;;;1.00;;
64498;SDS011;51087;55.718;21.122;2022-07-05T13:17:37;2.85;;;1.20;;
64498;SDS011;51087;55.718;21.122;2022-07-05T13:20:03;6.13;;;1.10;;
64498;SDS011;51087;55.718;21.122;2022-07-05T13:22:29;2.97;;;0.90;;
64498;SDS011;51087;55.718;21.122;2022-07-05T13:24:54;2.97;;;0.93;;
64498;SDS011;51087;55.718;21.122;2022-07-05T13:27:20;3.35;;;1.08;;
64498;SDS011;51087;55.718;21.122;2022-07-05T13:29:45;3.80;;;0.90;;
64498;SDS011;51087;55.718;21.122;2022-07-05T13:32:13;4.38;;;1.00;;
64498;SDS011;51087;55.718;21.122;2022-07-05T13:34:41;5.07;;;0.93;;
64498;SDS011;51087;55.718;21.122;2022-07-05T13:37:07;2.78;;;1.00;;
64498;SDS011;51087;55.718;21.122;2022-07-05T13:39:33;4.15;;;0.90;;
64498;SDS011;51087;55.718;21.122;2022-07-05T13:41:58;8.82;;;1.30;;
64498;SDS011;51087;55.718;21.122;2022-07-05T13:44:24;3.28;;;1.02;;
64498;SDS011;51087;55.718;21.122;2022-07-05T13:46:49;2.72;;;1.10;;
64498;SDS011;51087;55.718;21.122;2022-07-05T13:49:15;3.78;;;1.40;;
64498;SDS011;51087;55.718;21.122;2022-07-05T13:51:41;5.03;;;1.15;;
64498;SDS011;51087;55.718;21.122;2022-07-05T13:54:06;4.05;;;1.20;;
64498;SDS011;51087;55.718;21.122;2022-07-05T13:56:32;2.55;;;0.88;;
64498;SDS011;51087;55.718;21.122;2022-07-05T13:58:58;3.97;;;1.20;;
64498;SDS011;51087;55.718;21.122;2022-07-05T14:01:24;3.20;;;1.08;;
64498;SDS011;51087;55.718;21.122;2022-07-05T14:03:55;4.93;;;1.30;;
64498;SDS011;51087;55.718;21.122;2022-07-05T14:06:25;5.97;;;1.20;;
64498;SDS011;51087;55.718;21.122;2022-07-05T14:08:51;4.18;;;1.17;;
64498;SDS011;51087;55.718;21.122;2022-07-05T14:11:17;6.07;;;1.20;;
64498;SDS011;51087;55.718;21.122;2022-07-05T14:13:43;6.68;;;1.30;;
64498;SDS011;51087;55.718;21.122;2022-07-05T14:16:09;4.45;;;1.13;;
64498;SDS011;51087;55.718;21.122;2022-07-05T14:18:34;6.43;;;1.10;;
64498;SDS011;51087;55.718;21.122;2022-07-05T14:21:00;9.63;;;1.40;;
64498;SDS011;51087;55.718;21.122;2022-07-05T14:23:25;6.63;;;1.25;;
64498;SDS011;51087;55.718;21.122;2022-07-05T14:25:50;11.90;;;1.75;;
64498;SDS011;51087;55.718;21.122;2022-07-05T14:28:16;5.97;;;1.30;;
64498;SDS011;51087;55.718;21.122;2022-07-05T14:30:43;2.38;;;1.00;;
64498;SDS011;51087;55.718;21.122;2022-07-05T14:33:10;13.88;;;1.80;;
64498;SDS011;51087;55.718;21.122;2022-07-05T14:35:37;6.30;;;1.52;;
64498;SDS011;51087;55.718;21.122;2022-07-05T14:38:03;6.22;;;1.27;;
64498;SDS011;51087;55.718;21.122;2022-07-05T14:40:28;4.85;;;1.50;;
64498;SDS011;51087;55.718;21.122;2022-07-05T14:42:55;6.18;;;1.20;;
64498;SDS011;51087;55.718;21.122;2022-07-05T14:45:22;7.43;;;1.00;;
64498;SDS011;51087;55.718;21.122;2022-07-05T14:47:48;7.13;;;1.10;;
64498;SDS011;51087;55.718;21.122;2022-07-05T14:50:14;7.22;;;1.30;;
64498;SDS011;51087;55.718;21.122;2022-07-05T14:52:40;6.28;;;1.40;;
64498;SDS011;51087;55.718;21.122;2022-07-05T14:55:07;3.97;;;1.25;;
64498;SDS011;51087;55.718;21.122;2022-07-05T14:57:34;2.85;;;1.00;;
64498;SDS011;51087;55.718;21.122;2022-07-05T14:59:59;3.45;;;1.23;;
64498;SDS011;51087;55.718;21.122;2022-07-05T15:02:25;3.15;;;1.48;;
64498;SDS011;51087;55.718;21.122;2022-07-05T15:04:50;3.20;;;1.10;;
64498;SDS011;51087;55.718;21.122;2022-07-05T15:07:16;4.78;;;1.30;;